sensor_id;sensor_type;location;lat;lon;timestamp;P1;durP1;ratioP1;P2;durP2;ratioP2
1446;SDS011;717;51.522;7.266;2022-08-20T00:01:06;14.63;;;12.32;;
1446;SDS011;717;51.522;7.266;2022-08-20T00:03:34;14.55;;;12.57;;
1446;SDS011;717;51.522;7.266;2022-08-20T00:06:05;14.35;;;12.75;;
1446;SDS011;717;51.522;7.266;2022-08-20T00:08:35;15.05;;;12.63;;
1446;SDS011;717;51.522;7.266;2022-08-20T00:11:04;14.05;;;12.25;;
1446;SDS011;717;51.522;7.266;2022-08-20T00:13:34;15.65;;;13.23;;
1446;SDS011;717;51.522;7.266;2022-08-20T00:16:02;14.25;;;12.32;;
1446;SDS011;717;51.522;7.266;2022-08-20T00:18:30;16.50;;;14.05;;
1446;SDS011;717;51.522;7.266;2022-08-20T00:20:57;15.27;;;13.43;;
1446;SDS011;717;51.522;7.266;2022-08-20T00:23:25;16.85;;;13.60;;
1446;SDS011;717;51.522;7.266;2022-08-20T00:25:52;14.88;;;13.27;;
1446;SDS011;717;51.522;7.266;2022-08-20T00:28:20;15.77;;;14.02;;
1446;SDS011;717;51.522;7.266;2022-08-20T00:30:47;14.88;;;13.27;;
1446;SDS011;717;51.522;7.266;2022-08-20T00:33:15;15.80;;;14.20;;
1446;SDS011;717;51.522;7.266;2022-08-20T00:35:45;15.05;;;13.55;;
1446;SDS011;717;51.522;7.266;2022-08-20T00:38:13;16.35;;;14.68;;
1446;SDS011;717;51.522;7.266;2022-08-20T00:40:42;15.98;;;14.35;;
1446;SDS011;717;51.522;7.266;2022-08-20T00:43:27;16.45;;;14.85;;
1446;SDS011;717;51.522;7.266;2022-08-20T00:45:57;16.95;;;15.15;;
1446;SDS011;717;51.522;7.266;2022-08-20T00:48:25;15.80;;;14.30;;
1446;SDS011;717;51.522;7.266;2022-08-20T00:50:58;16.40;;;14.68;;
1446;SDS011;717;51.522;7.266;2022-08-20T00:53:29;15.38;;;13.95;;
1446;SDS011;717;51.522;7.266;2022-08-20T00:55:58;16.05;;;14.45;;
1446;SDS011;717;51.522;7.266;2022-08-20T00:58:26;15.55;;;14.05;;
1446;SDS011;717;51.522;7.266;2022-08-20T01:00:53;15.65;;;14.15;;
1446;SDS011;717;51.522;7.266;2022-08-20T01:03:21;15.73;;;14.13;;
1446;SDS011;717;51.522;7.266;2022-08-20T01:05:48;15.65;;;14.15;;
1446;SDS011;717;51.522;7.266;2022-08-20T01:08:17;15.45;;;14.05;;
1446;SDS011;717;51.522;7.266;2022-08-20T01:10:46;15.32;;;13.77;;
1446;SDS011;717;51.522;7.266;2022-08-20T01:13:32;15.80;;;14.20;;
1446;SDS011;717;51.522;7.266;2022-08-20T01:16:02;15.73;;;14.18;;
1446;SDS011;717;51.522;7.266;2022-08-20T01:18:34;16.75;;;15.05;;
1446;SDS011;717;51.522;7.266;2022-08-20T01:21:03;17.08;;;15.48;;
1446;SDS011;717;51.522;7.266;2022-08-20T01:23:33;16.52;;;14.93;;
1446;SDS011;717;51.522;7.266;2022-08-20T01:26:07;16.90;;;15.20;;
1446;SDS011;717;51.522;7.266;2022-08-20T01:28:38;17.17;;;15.52;;
1446;SDS011;717;51.522;7.266;2022-08-20T01:31:08;15.52;;;14.00;;
1446;SDS011;717;51.522;7.266;2022-08-20T01:33:37;16.85;;;15.15;;
1446;SDS011;717;51.522;7.266;2022-08-20T01:36:05;16.40;;;14.65;;
1446;SDS011;717;51.522;7.266;2022-08-20T01:38:32;15.35;;;13.85;;
1446;SDS011;717;51.522;7.266;2022-08-20T01:41:08;16.08;;;14.57;;
1446;SDS011;717;51.522;7.266;2022-08-20T01:43:46;15.02;;;13.52;;
1446;SDS011;717;51.522;7.266;2022-08-20T01:46:14;14.85;;;13.48;;
1446;SDS011;717;51.522;7.266;2022-08-20T01:48:42;14.50;;;13.15;;
1446;SDS011;717;51.522;7.266;2022-08-20T01:51:12;14.75;;;13.25;;
1446;SDS011;717;51.522;7.266;2022-08-20T01:53:44;14.75;;;13.18;;
1446;SDS011;717;51.522;7.266;2022-08-20T01:56:15;15.18;;;13.57;;
1446;SDS011;717;51.522;7.266;2022-08-20T01:58:45;14.40;;;12.88;;
1446;SDS011;717;51.522;7.266;2022-08-20T02:01:18;16.40;;;14.90;;
1446;SDS011;717;51.522;7.266;2022-08-20T02:03:47;15.55;;;14.07;;
1446;SDS011;717;51.522;7.266;2022-08-20T02:06:14;14.77;;;13.38;;
1446;SDS011;717;51.522;7.266;2022-08-20T02:08:41;15.68;;;14.18;;
1446;SDS011;717;51.522;7.266;2022-08-20T02:11:08;16.27;;;14.68;;
1446;SDS011;717;51.522;7.266;2022-08-20T02:13:37;15.90;;;14.43;;
1446;SDS011;717;51.522;7.266;2022-08-20T02:16:04;16.17;;;14.57;;
1446;SDS011;717;51.522;7.266;2022-08-20T02:18:32;15.55;;;14.05;;
1446;SDS011;717;51.522;7.266;2022-08-20T02:20:58;15.60;;;14.10;;
1446;SDS011;717;51.522;7.266;2022-08-20T02:23:25;15.50;;;14.05;;
1446;SDS011;717;51.522;7.266;2022-08-20T02:25:52;16.27;;;14.68;;
1446;SDS011;717;51.522;7.266;2022-08-20T02:28:20;14.48;;;13.07;;
1446;SDS011;717;51.522;7.266;2022-08-20T02:30:49;15.18;;;13.75;;
1446;SDS011;717;51.522;7.266;2022-08-20T02:33:19;15.18;;;13.77;;
1446;SDS011;717;51.522;7.266;2022-08-20T02:35:47;15.05;;;13.57;;
1446;SDS011;717;51.522;7.266;2022-08-20T02:38:14;16.23;;;14.63;;
1446;SDS011;717;51.522;7.266;2022-08-20T02:40:43;15.93;;;14.32;;
1446;SDS011;717;51.522;7.266;2022-08-20T02:43:13;17.65;;;15.85;;
1446;SDS011;717;51.522;7.266;2022-08-20T02:45:42;15.90;;;14.40;;
1446;SDS011;717;51.522;7.266;2022-08-20T02:48:11;15.57;;;14.07;;
1446;SDS011;717;51.522;7.266;2022-08-20T02:50:45;15.15;;;13.70;;
1446;SDS011;717;51.522;7.266;2022-08-20T02:53:14;14.20;;;12.80;;
1446;SDS011;717;51.522;7.266;2022-08-20T02:55:41;15.60;;;14.20;;
1446;SDS011;717;51.522;7.266;2022-08-20T02:58:08;15.20;;;13.60;;
1446;SDS011;717;51.522;7.266;2022-08-20T03:00:35;14.30;;;12.90;;
1446;SDS011;717;51.522;7.266;2022-08-20T03:03:02;15.63;;;14.13;;
1446;SDS011;717;51.522;7.266;2022-08-20T03:05:31;15.10;;;13.60;;
1446;SDS011;717;51.522;7.266;2022-08-20T03:07:58;13.90;;;12.50;;
1446;SDS011;717;51.522;7.266;2022-08-20T03:10:31;13.70;;;12.35;;
1446;SDS011;717;51.522;7.266;2022-08-20T03:12:59;15.05;;;13.50;;
1446;SDS011;717;51.522;7.266;2022-08-20T03:15:27;14.88;;;13.48;;
1446;SDS011;717;51.522;7.266;2022-08-20T03:17:54;13.55;;;12.25;;
1446;SDS011;717;51.522;7.266;2022-08-20T03:20:22;14.18;;;12.77;;
1446;SDS011;717;51.522;7.266;2022-08-20T03:22:51;13.30;;;12.00;;
1446;SDS011;717;51.522;7.266;2022-08-20T03:25:18;13.35;;;12.13;;
1446;SDS011;717;51.522;7.266;2022-08-20T03:27:45;14.05;;;12.65;;
1446;SDS011;717;51.522;7.266;2022-08-20T03:30:13;14.40;;;12.90;;
1446;SDS011;717;51.522;7.266;2022-08-20T03:32:41;13.52;;;12.13;;
1446;SDS011;717;51.522;7.266;2022-08-20T03:35:10;13.55;;;12.25;;
1446;SDS011;717;51.522;7.266;2022-08-20T03:37:39;13.05;;;11.80;;
1446;SDS011;717;51.522;7.266;2022-08-20T03:40:08;15.45;;;13.52;;
1446;SDS011;717;51.522;7.266;2022-08-20T03:42:37;14.02;;;12.63;;
1446;SDS011;717;51.522;7.266;2022-08-20T03:45:05;13.95;;;12.55;;
1446;SDS011;717;51.522;7.266;2022-08-20T03:47:34;16.95;;;13.57;;
1446;SDS011;717;51.522;7.266;2022-08-20T03:50:01;14.43;;;12.25;;
1446;SDS011;717;51.522;7.266;2022-08-20T03:52:30;14.05;;;12.65;;
1446;SDS011;717;51.522;7.266;2022-08-20T03:54:57;14.25;;;12.75;;
1446;SDS011;717;51.522;7.266;2022-08-20T03:57:25;13.48;;;12.10;;
1446;SDS011;717;51.522;7.266;2022-08-20T03:59:52;14.68;;;13.27;;
1446;SDS011;717;51.522;7.266;2022-08-20T04:02:19;14.65;;;13.15;;
1446;SDS011;717;51.522;7.266;2022-08-20T04:04:46;15.30;;;13.68;;
1446;SDS011;717;51.522;7.266;2022-08-20T04:07:15;15.48;;;13.38;;
1446;SDS011;717;51.522;7.266;2022-08-20T04:09:44;14.55;;;12.93;;
1446;SDS011;717;51.522;7.266;2022-08-20T04:12:11;14.15;;;12.70;;
1446;SDS011;717;51.522;7.266;2022-08-20T04:14:39;14.35;;;12.85;;
1446;SDS011;717;51.522;7.266;2022-08-20T04:17:07;15.00;;;13.10;;
1446;SDS011;717;51.522;7.266;2022-08-20T04:19:35;16.13;;;14.43;;
1446;SDS011;717;51.522;7.266;2022-08-20T04:22:03;14.50;;;13.02;;
1446;SDS011;717;51.522;7.266;2022-08-20T04:24:30;16.02;;;14.40;;
1446;SDS011;717;51.522;7.266;2022-08-20T04:26:57;15.45;;;13.68;;
1446;SDS011;717;51.522;7.266;2022-08-20T04:29:24;15.05;;;13.43;;
1446;SDS011;717;51.522;7.266;2022-08-20T04:31:53;14.88;;;13.38;;
1446;SDS011;717;51.522;7.266;2022-08-20T04:34:20;15.93;;;14.30;;
1446;SDS011;717;51.522;7.266;2022-08-20T04:36:47;15.68;;;14.00;;
1446;SDS011;717;51.522;7.266;2022-08-20T04:39:14;15.45;;;13.82;;
1446;SDS011;717;51.522;7.266;2022-08-20T04:41:41;16.13;;;13.63;;
1446;SDS011;717;51.522;7.266;2022-08-20T04:44:09;15.60;;;14.02;;
1446;SDS011;717;51.522;7.266;2022-08-20T04:46:37;14.95;;;13.20;;
1446;SDS011;717;51.522;7.266;2022-08-20T04:49:06;15.05;;;13.45;;
1446;SDS011;717;51.522;7.266;2022-08-20T04:51:34;15.20;;;13.57;;
1446;SDS011;717;51.522;7.266;2022-08-20T04:54:00;15.07;;;13.48;;
1446;SDS011;717;51.522;7.266;2022-08-20T04:56:30;15.27;;;13.68;;
1446;SDS011;717;51.522;7.266;2022-08-20T04:58:59;14.70;;;13.20;;
1446;SDS011;717;51.522;7.266;2022-08-20T05:01:26;16.40;;;14.40;;
1446;SDS011;717;51.522;7.266;2022-08-20T05:03:53;15.73;;;14.23;;
1446;SDS011;717;51.522;7.266;2022-08-20T05:06:24;16.73;;;15.02;;
1446;SDS011;717;51.522;7.266;2022-08-20T05:08:52;17.30;;;14.10;;
1446;SDS011;717;51.522;7.266;2022-08-20T05:11:22;16.90;;;15.23;;
1446;SDS011;717;51.522;7.266;2022-08-20T05:13:49;16.40;;;14.23;;
1446;SDS011;717;51.522;7.266;2022-08-20T05:16:17;17.35;;;15.07;;
1446;SDS011;717;51.522;7.266;2022-08-20T05:18:44;16.15;;;14.57;;
1446;SDS011;717;51.522;7.266;2022-08-20T05:21:11;17.38;;;15.02;;
1446;SDS011;717;51.522;7.266;2022-08-20T05:23:40;15.85;;;14.23;;
1446;SDS011;717;51.522;7.266;2022-08-20T05:26:07;15.48;;;13.82;;
1446;SDS011;717;51.522;7.266;2022-08-20T05:28:35;15.13;;;13.63;;
1446;SDS011;717;51.522;7.266;2022-08-20T05:31:03;14.77;;;13.18;;
1446;SDS011;717;51.522;7.266;2022-08-20T05:33:33;15.07;;;13.48;;
1446;SDS011;717;51.522;7.266;2022-08-20T05:36:00;16.10;;;14.13;;
1446;SDS011;717;51.522;7.266;2022-08-20T05:38:29;15.63;;;13.15;;
1446;SDS011;717;51.522;7.266;2022-08-20T05:40:57;15.10;;;12.85;;
1446;SDS011;717;51.522;7.266;2022-08-20T05:43:24;13.40;;;12.05;;
1446;SDS011;717;51.522;7.266;2022-08-20T05:45:51;13.45;;;12.05;;
1446;SDS011;717;51.522;7.266;2022-08-20T05:48:19;13.18;;;11.77;;
1446;SDS011;717;51.522;7.266;2022-08-20T05:50:47;14.07;;;12.57;;
1446;SDS011;717;51.522;7.266;2022-08-20T05:53:15;13.57;;;12.20;;
1446;SDS011;717;51.522;7.266;2022-08-20T05:55:43;15.40;;;13.25;;
1446;SDS011;717;51.522;7.266;2022-08-20T05:58:16;15.70;;;13.23;;
1446;SDS011;717;51.522;7.266;2022-08-20T06:00:46;15.88;;;13.25;;
1446;SDS011;717;51.522;7.266;2022-08-20T06:03:14;14.48;;;12.95;;
1446;SDS011;717;51.522;7.266;2022-08-20T06:05:58;14.45;;;12.95;;
1446;SDS011;717;51.522;7.266;2022-08-20T06:08:25;14.38;;;12.93;;
1446;SDS011;717;51.522;7.266;2022-08-20T06:10:52;15.13;;;13.60;;
1446;SDS011;717;51.522;7.266;2022-08-20T06:13:20;15.20;;;13.60;;
1446;SDS011;717;51.522;7.266;2022-08-20T06:15:47;14.18;;;12.68;;
1446;SDS011;717;51.522;7.266;2022-08-20T06:18:14;16.33;;;13.90;;
1446;SDS011;717;51.522;7.266;2022-08-20T06:20:41;14.70;;;13.15;;
1446;SDS011;717;51.522;7.266;2022-08-20T06:23:09;16.40;;;14.55;;
1446;SDS011;717;51.522;7.266;2022-08-20T06:25:36;14.60;;;13.10;;
1446;SDS011;717;51.522;7.266;2022-08-20T06:28:03;15.18;;;13.57;;
1446;SDS011;717;51.522;7.266;2022-08-20T06:30:32;16.08;;;13.95;;
1446;SDS011;717;51.522;7.266;2022-08-20T06:32:59;16.17;;;14.45;;
1446;SDS011;717;51.522;7.266;2022-08-20T06:35:26;15.95;;;14.25;;
1446;SDS011;717;51.522;7.266;2022-08-20T06:37:52;15.07;;;13.60;;
1446;SDS011;717;51.522;7.266;2022-08-20T06:40:22;16.38;;;14.55;;
1446;SDS011;717;51.522;7.266;2022-08-20T06:42:52;16.13;;;14.52;;
1446;SDS011;717;51.522;7.266;2022-08-20T06:45:20;16.27;;;14.57;;
1446;SDS011;717;51.522;7.266;2022-08-20T06:47:51;17.45;;;15.63;;
1446;SDS011;717;51.522;7.266;2022-08-20T06:50:21;18.20;;;15.38;;
1446;SDS011;717;51.522;7.266;2022-08-20T06:52:49;17.42;;;15.57;;
1446;SDS011;717;51.522;7.266;2022-08-20T06:55:16;16.98;;;15.32;;
1446;SDS011;717;51.522;7.266;2022-08-20T06:57:43;17.90;;;15.60;;
1446;SDS011;717;51.522;7.266;2022-08-20T07:00:14;17.30;;;15.48;;
1446;SDS011;717;51.522;7.266;2022-08-20T07:02:42;17.00;;;15.20;;
1446;SDS011;717;51.522;7.266;2022-08-20T07:05:11;16.60;;;14.85;;
1446;SDS011;717;51.522;7.266;2022-08-20T07:07:43;16.63;;;14.90;;
1446;SDS011;717;51.522;7.266;2022-08-20T07:10:11;17.98;;;16.08;;
1446;SDS011;717;51.522;7.266;2022-08-20T07:12:39;17.45;;;15.65;;
1446;SDS011;717;51.522;7.266;2022-08-20T07:15:08;17.67;;;15.85;;
1446;SDS011;717;51.522;7.266;2022-08-20T07:17:37;18.35;;;16.55;;
1446;SDS011;717;51.522;7.266;2022-08-20T07:20:04;16.88;;;15.10;;
1446;SDS011;717;51.522;7.266;2022-08-20T07:22:34;17.42;;;15.60;;
1446;SDS011;717;51.522;7.266;2022-08-20T07:25:01;19.13;;;17.17;;
1446;SDS011;717;51.522;7.266;2022-08-20T07:27:29;19.10;;;17.10;;
1446;SDS011;717;51.522;7.266;2022-08-20T07:29:56;18.35;;;16.63;;
1446;SDS011;717;51.522;7.266;2022-08-20T07:32:40;20.05;;;18.00;;
1446;SDS011;717;51.522;7.266;2022-08-20T07:35:09;18.35;;;16.52;;
1446;SDS011;717;51.522;7.266;2022-08-20T07:37:40;19.80;;;17.90;;
1446;SDS011;717;51.522;7.266;2022-08-20T07:40:09;19.77;;;17.33;;
1446;SDS011;717;51.522;7.266;2022-08-20T07:42:39;19.42;;;17.15;;
1446;SDS011;717;51.522;7.266;2022-08-20T07:45:06;19.77;;;17.38;;
1446;SDS011;717;51.522;7.266;2022-08-20T07:47:34;19.50;;;17.50;;
1446;SDS011;717;51.522;7.266;2022-08-20T07:50:02;20.50;;;18.38;;
1446;SDS011;717;51.522;7.266;2022-08-20T07:52:29;21.13;;;18.95;;
1446;SDS011;717;51.522;7.266;2022-08-20T07:55:00;18.52;;;16.63;;
1446;SDS011;717;51.522;7.266;2022-08-20T07:57:27;20.35;;;18.25;;
1446;SDS011;717;51.522;7.266;2022-08-20T07:59:54;20.65;;;18.50;;
1446;SDS011;717;51.522;7.266;2022-08-20T08:02:22;19.90;;;17.85;;
1446;SDS011;717;51.522;7.266;2022-08-20T08:04:49;19.25;;;17.35;;
1446;SDS011;717;51.522;7.266;2022-08-20T08:07:16;19.77;;;17.67;;
1446;SDS011;717;51.522;7.266;2022-08-20T08:09:43;17.90;;;16.10;;
1446;SDS011;717;51.522;7.266;2022-08-20T08:12:12;18.95;;;17.02;;
1446;SDS011;717;51.522;7.266;2022-08-20T08:14:40;19.77;;;17.73;;
1446;SDS011;717;51.522;7.266;2022-08-20T08:17:09;18.77;;;16.85;;
1446;SDS011;717;51.522;7.266;2022-08-20T08:19:37;18.90;;;17.00;;
1446;SDS011;717;51.522;7.266;2022-08-20T08:22:10;17.38;;;15.77;;
1446;SDS011;717;51.522;7.266;2022-08-20T08:24:40;19.45;;;17.48;;
1446;SDS011;717;51.522;7.266;2022-08-20T08:27:08;19.17;;;17.20;;
1446;SDS011;717;51.522;7.266;2022-08-20T08:29:37;18.90;;;17.10;;
1446;SDS011;717;51.522;7.266;2022-08-20T08:32:04;20.13;;;17.73;;
1446;SDS011;717;51.522;7.266;2022-08-20T08:34:32;18.63;;;16.73;;
1446;SDS011;717;51.522;7.266;2022-08-20T08:37:01;20.08;;;18.08;;
1446;SDS011;717;51.522;7.266;2022-08-20T08:39:28;20.95;;;18.55;;
1446;SDS011;717;51.522;7.266;2022-08-20T08:41:55;19.77;;;17.67;;
1446;SDS011;717;51.522;7.266;2022-08-20T08:44:25;20.38;;;18.38;;
1446;SDS011;717;51.522;7.266;2022-08-20T08:46:56;19.33;;;17.48;;
1446;SDS011;717;51.522;7.266;2022-08-20T08:49:27;18.55;;;16.70;;
1446;SDS011;717;51.522;7.266;2022-08-20T08:51:58;18.98;;;17.15;;
1446;SDS011;717;51.522;7.266;2022-08-20T08:54:28;16.15;;;14.75;;
1446;SDS011;717;51.522;7.266;2022-08-20T08:56:57;17.35;;;15.65;;
1446;SDS011;717;51.522;7.266;2022-08-20T08:59:26;16.00;;;14.50;;
1446;SDS011;717;51.522;7.266;2022-08-20T09:01:57;15.75;;;14.25;;
1446;SDS011;717;51.522;7.266;2022-08-20T09:04:27;16.50;;;14.90;;
1446;SDS011;717;51.522;7.266;2022-08-20T09:06:57;17.30;;;15.50;;
1446;SDS011;717;51.522;7.266;2022-08-20T09:09:28;17.13;;;15.60;;
1446;SDS011;717;51.522;7.266;2022-08-20T09:12:01;16.00;;;14.60;;
1446;SDS011;717;51.522;7.266;2022-08-20T09:14:29;16.33;;;14.93;;
1446;SDS011;717;51.522;7.266;2022-08-20T09:16:58;16.75;;;15.25;;
1446;SDS011;717;51.522;7.266;2022-08-20T09:19:24;15.95;;;14.55;;
1446;SDS011;717;51.522;7.266;2022-08-20T09:21:51;17.25;;;15.65;;
1446;SDS011;717;51.522;7.266;2022-08-20T09:24:18;17.65;;;16.15;;
1446;SDS011;717;51.522;7.266;2022-08-20T09:26:45;16.55;;;15.18;;
1446;SDS011;717;51.522;7.266;2022-08-20T09:29:12;17.17;;;15.65;;
1446;SDS011;717;51.522;7.266;2022-08-20T09:31:39;19.10;;;17.40;;
1446;SDS011;717;51.522;7.266;2022-08-20T09:34:07;19.27;;;17.60;;
1446;SDS011;717;51.522;7.266;2022-08-20T09:36:33;18.80;;;17.10;;
1446;SDS011;717;51.522;7.266;2022-08-20T09:39:03;19.60;;;17.70;;
1446;SDS011;717;51.522;7.266;2022-08-20T09:41:30;19.00;;;17.30;;
1446;SDS011;717;51.522;7.266;2022-08-20T09:44:00;18.88;;;17.17;;
1446;SDS011;717;51.522;7.266;2022-08-20T09:46:29;18.55;;;16.77;;
1446;SDS011;717;51.522;7.266;2022-08-20T09:48:56;19.00;;;17.30;;
1446;SDS011;717;51.522;7.266;2022-08-20T09:51:24;21.55;;;19.65;;
1446;SDS011;717;51.522;7.266;2022-08-20T09:53:51;23.30;;;21.20;;
1446;SDS011;717;51.522;7.266;2022-08-20T09:56:18;24.25;;;21.85;;
1446;SDS011;717;51.522;7.266;2022-08-20T09:58:46;25.90;;;23.50;;
1446;SDS011;717;51.522;7.266;2022-08-20T10:01:17;27.30;;;24.60;;
1446;SDS011;717;51.522;7.266;2022-08-20T10:03:54;27.38;;;24.67;;
1446;SDS011;717;51.522;7.266;2022-08-20T10:06:21;29.40;;;26.45;;
1446;SDS011;717;51.522;7.266;2022-08-20T10:08:49;27.58;;;24.95;;
1446;SDS011;717;51.522;7.266;2022-08-20T10:11:16;30.83;;;27.85;;
1446;SDS011;717;51.522;7.266;2022-08-20T10:13:47;27.88;;;25.02;;
1446;SDS011;717;51.522;7.266;2022-08-20T10:16:18;30.83;;;27.75;;
1446;SDS011;717;51.522;7.266;2022-08-20T10:18:49;28.35;;;25.50;;
1446;SDS011;717;51.522;7.266;2022-08-20T10:21:15;29.50;;;26.48;;
1446;SDS011;717;51.522;7.266;2022-08-20T10:23:42;26.55;;;24.05;;
1446;SDS011;717;51.522;7.266;2022-08-20T10:26:13;28.40;;;25.42;;
1446;SDS011;717;51.522;7.266;2022-08-20T10:28:41;28.60;;;25.65;;
1446;SDS011;717;51.522;7.266;2022-08-20T10:31:11;26.73;;;23.83;;
1446;SDS011;717;51.522;7.266;2022-08-20T10:33:39;29.55;;;26.70;;
1446;SDS011;717;51.522;7.266;2022-08-20T10:36:06;29.40;;;26.30;;
1446;SDS011;717;51.522;7.266;2022-08-20T10:38:35;29.88;;;26.90;;
1446;SDS011;717;51.522;7.266;2022-08-20T10:41:02;30.67;;;27.58;;
1446;SDS011;717;51.522;7.266;2022-08-20T10:43:33;29.75;;;26.75;;
1446;SDS011;717;51.522;7.266;2022-08-20T10:46:00;28.60;;;25.83;;
1446;SDS011;717;51.522;7.266;2022-08-20T10:48:30;27.02;;;24.45;;
1446;SDS011;717;51.522;7.266;2022-08-20T10:50:57;28.70;;;25.92;;
1446;SDS011;717;51.522;7.266;2022-08-20T10:53:24;26.95;;;24.17;;
1446;SDS011;717;51.522;7.266;2022-08-20T10:55:53;29.08;;;26.17;;
1446;SDS011;717;51.522;7.266;2022-08-20T10:58:25;31.10;;;27.98;;
1446;SDS011;717;51.522;7.266;2022-08-20T11:00:53;29.48;;;26.77;;
1446;SDS011;717;51.522;7.266;2022-08-20T11:03:20;29.38;;;26.58;;
1446;SDS011;717;51.522;7.266;2022-08-20T11:05:47;29.02;;;26.13;;
1446;SDS011;717;51.522;7.266;2022-08-20T11:08:16;26.85;;;24.20;;
1446;SDS011;717;51.522;7.266;2022-08-20T11:10:43;26.35;;;23.75;;
1446;SDS011;717;51.522;7.266;2022-08-20T11:13:10;24.65;;;22.35;;
1446;SDS011;717;51.522;7.266;2022-08-20T11:15:38;21.33;;;19.42;;
1446;SDS011;717;51.522;7.266;2022-08-20T11:18:16;23.73;;;21.40;;
1446;SDS011;717;51.522;7.266;2022-08-20T11:20:50;22.23;;;20.13;;
1446;SDS011;717;51.522;7.266;2022-08-20T11:23:17;20.60;;;18.60;;
1446;SDS011;717;51.522;7.266;2022-08-20T11:25:51;20.38;;;18.48;;
1446;SDS011;717;51.522;7.266;2022-08-20T11:28:21;20.08;;;18.08;;
1446;SDS011;717;51.522;7.266;2022-08-20T11:30:55;19.80;;;17.77;;
1446;SDS011;717;51.522;7.266;2022-08-20T11:33:23;17.65;;;16.05;;
1446;SDS011;717;51.522;7.266;2022-08-20T11:35:50;16.35;;;14.63;;
1446;SDS011;717;51.522;7.266;2022-08-20T11:38:18;16.38;;;14.55;;
1446;SDS011;717;51.522;7.266;2022-08-20T11:40:44;18.60;;;16.70;;
1446;SDS011;717;51.522;7.266;2022-08-20T11:43:12;16.92;;;15.38;;
1446;SDS011;717;51.522;7.266;2022-08-20T11:45:42;16.70;;;15.10;;
1446;SDS011;717;51.522;7.266;2022-08-20T11:48:10;15.35;;;13.82;;
1446;SDS011;717;51.522;7.266;2022-08-20T11:50:45;14.10;;;12.57;;
1446;SDS011;717;51.522;7.266;2022-08-20T11:53:13;13.52;;;12.10;;
1446;SDS011;717;51.522;7.266;2022-08-20T11:55:39;15.05;;;13.55;;
1446;SDS011;717;51.522;7.266;2022-08-20T11:58:08;15.25;;;13.60;;
1446;SDS011;717;51.522;7.266;2022-08-20T12:00:36;14.65;;;13.18;;
1446;SDS011;717;51.522;7.266;2022-08-20T12:03:03;14.95;;;11.70;;
1446;SDS011;717;51.522;7.266;2022-08-20T12:05:34;15.27;;;13.30;;
1446;SDS011;717;51.522;7.266;2022-08-20T12:08:03;13.00;;;11.80;;
1446;SDS011;717;51.522;7.266;2022-08-20T12:10:30;14.73;;;13.18;;
1446;SDS011;717;51.522;7.266;2022-08-20T12:12:57;15.05;;;13.18;;
1446;SDS011;717;51.522;7.266;2022-08-20T12:15:24;14.32;;;12.77;;
1446;SDS011;717;51.522;7.266;2022-08-20T12:17:54;14.32;;;12.77;;
1446;SDS011;717;51.522;7.266;2022-08-20T12:20:24;13.63;;;12.25;;
1446;SDS011;717;51.522;7.266;2022-08-20T12:22:51;12.65;;;11.30;;
1446;SDS011;717;51.522;7.266;2022-08-20T12:25:29;13.27;;;11.98;;
1446;SDS011;717;51.522;7.266;2022-08-20T12:28:04;13.52;;;11.57;;
1446;SDS011;717;51.522;7.266;2022-08-20T12:30:33;12.55;;;10.98;;
1446;SDS011;717;51.522;7.266;2022-08-20T12:33:00;13.43;;;11.80;;
1446;SDS011;717;51.522;7.266;2022-08-20T12:35:26;11.93;;;10.63;;
1446;SDS011;717;51.522;7.266;2022-08-20T12:37:54;12.70;;;10.65;;
1446;SDS011;717;51.522;7.266;2022-08-20T12:40:28;10.88;;;9.70;;
1446;SDS011;717;51.522;7.266;2022-08-20T12:42:55;11.20;;;10.13;;
1446;SDS011;717;51.522;7.266;2022-08-20T12:45:25;11.90;;;10.70;;
1446;SDS011;717;51.522;7.266;2022-08-20T12:47:55;11.38;;;10.27;;
1446;SDS011;717;51.522;7.266;2022-08-20T12:50:41;11.77;;;10.55;;
1446;SDS011;717;51.522;7.266;2022-08-20T12:53:09;11.60;;;10.10;;
1446;SDS011;717;51.522;7.266;2022-08-20T12:55:41;10.52;;;9.43;;
1446;SDS011;717;51.522;7.266;2022-08-20T12:58:11;10.18;;;9.20;;
1446;SDS011;717;51.522;7.266;2022-08-20T13:00:43;10.32;;;9.32;;
1446;SDS011;717;51.522;7.266;2022-08-20T13:03:12;11.02;;;9.95;;
1446;SDS011;717;51.522;7.266;2022-08-20T13:05:44;10.60;;;9.70;;
1446;SDS011;717;51.522;7.266;2022-08-20T13:08:11;10.25;;;9.18;;
1446;SDS011;717;51.522;7.266;2022-08-20T13:10:39;10.95;;;9.85;;
1446;SDS011;717;51.522;7.266;2022-08-20T13:13:09;11.73;;;10.70;;
1446;SDS011;717;51.522;7.266;2022-08-20T13:15:36;9.27;;;8.38;;
1446;SDS011;717;51.522;7.266;2022-08-20T13:18:04;10.75;;;8.30;;
1446;SDS011;717;51.522;7.266;2022-08-20T13:20:32;8.30;;;7.38;;
1446;SDS011;717;51.522;7.266;2022-08-20T13:22:59;7.88;;;7.00;;
1446;SDS011;717;51.522;7.266;2022-08-20T13:25:26;7.18;;;6.20;;
1446;SDS011;717;51.522;7.266;2022-08-20T13:27:56;8.52;;;5.45;;
1446;SDS011;717;51.522;7.266;2022-08-20T13:30:24;5.07;;;4.57;;
1446;SDS011;717;51.522;7.266;2022-08-20T13:32:51;5.93;;;4.97;;
1446;SDS011;717;51.522;7.266;2022-08-20T13:35:18;5.88;;;5.25;;
1446;SDS011;717;51.522;7.266;2022-08-20T13:37:46;7.03;;;4.85;;
1446;SDS011;717;51.522;7.266;2022-08-20T13:40:13;5.18;;;4.68;;
1446;SDS011;717;51.522;7.266;2022-08-20T13:42:40;4.60;;;4.13;;
1446;SDS011;717;51.522;7.266;2022-08-20T13:45:09;4.80;;;4.20;;
1446;SDS011;717;51.522;7.266;2022-08-20T13:47:36;7.93;;;3.45;;
1446;SDS011;717;51.522;7.266;2022-08-20T13:50:05;5.45;;;3.70;;
1446;SDS011;717;51.522;7.266;2022-08-20T13:52:34;7.30;;;4.80;;
1446;SDS011;717;51.522;7.266;2022-08-20T13:55:03;5.53;;;4.03;;
1446;SDS011;717;51.522;7.266;2022-08-20T13:57:33;4.10;;;3.70;;
1446;SDS011;717;51.522;7.266;2022-08-20T14:00:00;4.20;;;3.22;;
1446;SDS011;717;51.522;7.266;2022-08-20T14:02:28;3.53;;;2.70;;
1446;SDS011;717;51.522;7.266;2022-08-20T14:04:55;3.05;;;2.75;;
1446;SDS011;717;51.522;7.266;2022-08-20T14:07:22;3.60;;;2.10;;
1446;SDS011;717;51.522;7.266;2022-08-20T14:09:53;4.28;;;2.47;;
1446;SDS011;717;51.522;7.266;2022-08-20T14:12:21;4.45;;;2.53;;
1446;SDS011;717;51.522;7.266;2022-08-20T14:14:49;4.13;;;2.28;;
1446;SDS011;717;51.522;7.266;2022-08-20T14:17:18;4.22;;;2.13;;
1446;SDS011;717;51.522;7.266;2022-08-20T14:19:50;3.88;;;2.33;;
1446;SDS011;717;51.522;7.266;2022-08-20T14:22:18;5.68;;;2.60;;
1446;SDS011;717;51.522;7.266;2022-08-20T14:24:46;4.82;;;3.40;;
1446;SDS011;717;51.522;7.266;2022-08-20T14:27:14;5.15;;;3.47;;
1446;SDS011;717;51.522;7.266;2022-08-20T14:29:43;4.45;;;3.13;;
1446;SDS011;717;51.522;7.266;2022-08-20T14:32:10;5.75;;;4.13;;
1446;SDS011;717;51.522;7.266;2022-08-20T14:34:38;7.47;;;4.88;;
1446;SDS011;717;51.522;7.266;2022-08-20T14:37:10;5.80;;;5.00;;
1446;SDS011;717;51.522;7.266;2022-08-20T14:39:39;6.07;;;4.63;;
1446;SDS011;717;51.522;7.266;2022-08-20T14:42:06;5.07;;;4.57;;
1446;SDS011;717;51.522;7.266;2022-08-20T14:44:33;4.20;;;3.33;;
1446;SDS011;717;51.522;7.266;2022-08-20T14:47:13;4.57;;;2.55;;
1446;SDS011;717;51.522;7.266;2022-08-20T14:49:41;5.72;;;3.42;;
1446;SDS011;717;51.522;7.266;2022-08-20T14:52:10;5.50;;;3.28;;
1446;SDS011;717;51.522;7.266;2022-08-20T14:54:38;5.65;;;2.85;;
1446;SDS011;717;51.522;7.266;2022-08-20T14:57:06;4.32;;;2.28;;
1446;SDS011;717;51.522;7.266;2022-08-20T14:59:33;3.35;;;2.00;;
1446;SDS011;717;51.522;7.266;2022-08-20T15:02:01;6.28;;;2.83;;
1446;SDS011;717;51.522;7.266;2022-08-20T15:04:28;3.72;;;2.30;;
1446;SDS011;717;51.522;7.266;2022-08-20T15:06:55;4.35;;;2.25;;
1446;SDS011;717;51.522;7.266;2022-08-20T15:09:23;4.65;;;2.10;;
1446;SDS011;717;51.522;7.266;2022-08-20T15:11:50;3.42;;;2.05;;
1446;SDS011;717;51.522;7.266;2022-08-20T15:14:17;3.00;;;2.38;;